sensor_id;sensor_type;location;lat;lon;timestamp;pressure;altitude;pressure_sealevel;temperature;humidity
67499;BME280;54345;42.670;23.218;2022-11-15T00:01:32;93092.06;;;5.98;100.00
67499;BME280;54345;42.670;23.218;2022-11-15T00:03:57;93097.16;;;5.91;100.00
67499;BME280;54345;42.670;23.218;2022-11-15T00:06:23;93087.50;;;5.84;100.00
67499;BME280;54345;42.670;23.218;2022-11-15T00:08:48;93094.22;;;5.74;100.00
67499;BME280;54345;42.670;23.218;2022-11-15T00:11:14;93088.09;;;5.74;100.00
67499;BME280;54345;42.670;23.218;2022-11-15T00:13:40;93088.28;;;5.30;100.00
67499;BME280;54345;42.670;23.218;2022-11-15T00:16:05;93079.50;;;5.35;100.00
67499;BME280;54345;42.670;23.218;2022-11-15T00:18:31;93089.53;;;5.49;100.00
67499;BME280;54345;42.670;23.218;2022-11-15T00:21:04;93088.03;;;4.94;100.00
67499;BME280;54345;42.670;23.218;2022-11-15T00:23:30;93090.97;;;4.62;100.00
67499;BME280;54345;42.670;23.218;2022-11-15T00:25:59;93082.34;;;4.58;100.00
67499;BME280;54345;42.670;23.218;2022-11-15T00:28:25;93079.56;;;4.38;100.00
67499;BME280;54345;42.670;23.218;2022-11-15T00:30:51;93085.66;;;4.53;100.00
67499;BME280;54345;42.670;23.218;2022-11-15T00:33:17;93098.59;;;4.78;100.00
67499;BME280;54345;42.670;23.218;2022-11-15T00:35:43;93095.81;;;5.06;100.00
67499;BME280;54345;42.670;23.218;2022-11-15T00:38:08;93093.88;;;5.27;100.00
67499;BME280;54345;42.670;23.218;2022-11-15T00:40:34;93088.28;;;5.30;100.00
67499;BME280;54345;42.670;23.218;2022-11-15T00:42:59;93091.38;;;5.23;100.00
67499;BME280;54345;42.670;23.218;2022-11-15T00:45:25;93077.84;;;5.03;100.00
67499;BME280;54345;42.670;23.218;2022-11-15T00:47:51;93088.34;;;5.16;100.00
67499;BME280;54345;42.670;23.218;2022-11-15T00:50:18;93082.03;;;5.04;100.00
67499;BME280;54345;42.670;23.218;2022-11-15T00:52:43;93088.06;;;5.14;100.00
67499;BME280;54345;42.670;23.218;2022-11-15T00:55:16;93080.31;;;5.21;100.00
67499;BME280;54345;42.670;23.218;2022-11-15T00:57:43;93068.53;;;5.04;100.00
67499;BME280;54345;42.670;23.218;2022-11-15T01:00:09;93075.78;;;5.13;100.00
67499;BME280;54345;42.670;23.218;2022-11-15T01:02:35;93068.56;;;5.24;100.00
67499;BME280;54345;42.670;23.218;2022-11-15T01:05:01;93070.38;;;5.13;100.00
67499;BME280;54345;42.670;23.218;2022-11-15T01:07:26;93066.53;;;4.99;100.00
67499;BME280;54345;42.670;23.218;2022-11-15T01:09:52;93072.09;;;5.30;100.00
67499;BME280;54345;42.670;23.218;2022-11-15T01:12:18;93076.34;;;5.37;100.00
67499;BME280;54345;42.670;23.218;2022-11-15T01:14:43;93072.81;;;5.31;100.00
67499;BME280;54345;42.670;23.218;2022-11-15T01:17:09;93075.38;;;5.20;100.00
67499;BME280;54345;42.670;23.218;2022-11-15T01:19:34;93073.47;;;5.06;100.00
67499;BME280;54345;42.670;23.218;2022-11-15T01:22:00;93074.75;;;5.10;100.00
67499;BME280;54345;42.670;23.218;2022-11-15T01:24:25;93073.78;;;4.93;100.00
67499;BME280;54345;42.670;23.218;2022-11-15T01:26:51;93080.97;;;4.96;100.00
67499;BME280;54345;42.670;23.218;2022-11-15T01:29:16;93079.84;;;4.88;100.00
67499;BME280;54345;42.670;23.218;2022-11-15T01:31:42;93060.38;;;4.99;100.00
67499;BME280;54345;42.670;23.218;2022-11-15T01:34:07;93064.91;;;5.07;100.00
67499;BME280;54345;42.670;23.218;2022-11-15T01:36:33;93065.38;;;5.06;100.00
67499;BME280;54345;42.670;23.218;2022-11-15T01:38:59;93066.94;;;5.12;100.00
67499;BME280;54345;42.670;23.218;2022-11-15T01:41:31;93059.66;;;5.18;100.00
67499;BME280;54345;42.670;23.218;2022-11-15T01:44:34;93071.00;;;5.22;100.00
67499;BME280;54345;42.670;23.218;2022-11-15T01:47:04;93068.56;;;5.24;100.00
67499;BME280;54345;42.670;23.218;2022-11-15T01:49:33;93062.38;;;5.18;100.00
67499;BME280;54345;42.670;23.218;2022-11-15T01:52:02;93059.72;;;5.24;100.00
67499;BME280;54345;42.670;23.218;2022-11-15T01:54:28;93070.41;;;5.33;100.00
67499;BME280;54345;42.670;23.218;2022-11-15T01:57:07;93058.59;;;5.30;100.00
67499;BME280;54345;42.670;23.218;2022-11-15T01:59:35;93067.91;;;5.29;100.00
67499;BME280;54345;42.670;23.218;2022-11-15T02:02:02;93068.03;;;5.20;100.00
67499;BME280;54345;42.670;23.218;2022-11-15T02:04:29;93056.28;;;5.23;100.00
67499;BME280;54345;42.670;23.218;2022-11-15T02:06:56;93062.38;;;5.18;100.00
67499;BME280;54345;42.670;23.218;2022-11-15T02:09:22;93055.69;;;5.14;100.00
67499;BME280;54345;42.670;23.218;2022-11-15T02:11:49;93057.75;;;5.24;100.00
67499;BME280;54345;42.670;23.218;2022-11-15T02:14:19;93051.56;;;5.18;100.00
67499;BME280;54345;42.670;23.218;2022-11-15T02:25:03;93044.19;;;5.39;100.00
67499;BME280;54345;42.670;23.218;2022-11-15T02:30:23;93053.19;;;5.50;100.00
67499;BME280;54345;42.670;23.218;2022-11-15T02:32:57;93043.31;;;5.47;100.00
67499;BME280;54345;42.670;23.218;2022-11-15T02:35:40;93037.13;;;5.41;100.00
67499;BME280;54345;42.670;23.218;2022-11-15T02:41:04;93032.38;;;5.36;100.00
67499;BME280;54345;42.670;23.218;2022-11-15T02:46:22;93037.19;;;5.47;100.00
67499;BME280;54345;42.670;23.218;2022-11-15T02:49:13;93031.91;;;5.38;100.00
67499;BME280;54345;42.670;23.218;2022-11-15T02:51:40;93036.22;;;5.50;100.00
67499;BME280;54345;42.670;23.218;2022-11-15T02:54:14;93034.28;;;5.30;100.00
67499;BME280;54345;42.670;23.218;2022-11-15T02:56:42;93036.50;;;5.12;100.00
67499;BME280;54345;42.670;23.218;2022-11-15T03:04:35;93051.00;;;5.14;100.00
67499;BME280;54345;42.670;23.218;2022-11-15T03:07:20;93042.81;;;4.89;100.00
67499;BME280;54345;42.670;23.218;2022-11-15T03:12:41;93024.78;;;4.81;100.00
67499;BME280;54345;42.670;23.218;2022-11-15T03:15:18;93036.53;;;4.78;100.00
67499;BME280;54345;42.670;23.218;2022-11-15T03:17:51;93031.94;;;4.83;100.00
67499;BME280;54345;42.670;23.218;2022-11-15T03:20:19;93029.34;;;4.55;100.00
67499;BME280;54345;42.670;23.218;2022-11-15T03:22:46;93025.91;;;4.40;100.00
67499;BME280;54345;42.670;23.218;2022-11-15T03:25:17;93029.28;;;4.20;100.00
67499;BME280;54345;42.670;23.218;2022-11-15T03:27:48;93029.91;;;4.30;100.00
67499;BME280;54345;42.670;23.218;2022-11-15T03:30:17;93026.41;;;4.24;100.00
67499;BME280;54345;42.670;23.218;2022-11-15T03:32:47;93020.84;;;4.13;100.00
67499;BME280;54345;42.670;23.218;2022-11-15T03:35:19;93021.47;;;3.93;100.00
67499;BME280;54345;42.670;23.218;2022-11-15T03:40:17;93026.41;;;3.95;100.00
67499;BME280;54345;42.670;23.218;2022-11-15T03:45:18;93018.16;;;3.84;100.00
67499;BME280;54345;42.670;23.218;2022-11-15T03:48:01;93026.69;;;3.97;100.00
67499;BME280;54345;42.670;23.218;2022-11-15T03:50:28;93016.75;;;4.03;100.00
67499;BME280;54345;42.670;23.218;2022-11-15T03:52:55;93009.66;;;3.91;100.00
67499;BME280;54345;42.670;23.218;2022-11-15T03:55:21;93012.66;;;3.93;100.00
67499;BME280;54345;42.670;23.218;2022-11-15T03:57:51;93005.75;;;4.21;100.00
67499;BME280;54345;42.670;23.218;2022-11-15T04:00:18;93012.81;;;4.33;100.00
67499;BME280;54345;42.670;23.218;2022-11-15T04:02:44;93011.88;;;4.36;100.00
67499;BME280;54345;42.670;23.218;2022-11-15T04:05:10;93003.47;;;4.14;100.00
67499;BME280;54345;42.670;23.218;2022-11-15T04:07:35;93007.81;;;4.26;100.00
67499;BME280;54345;42.670;23.218;2022-11-15T04:10:02;93000.00;;;4.28;100.00
67499;BME280;54345;42.670;23.218;2022-11-15T04:12:34;93008.00;;;4.22;100.00
67499;BME280;54345;42.670;23.218;2022-11-15T04:15:11;93010.78;;;4.28;100.00
67499;BME280;54345;42.670;23.218;2022-11-15T04:17:45;93010.09;;;4.33;100.00
67499;BME280;54345;42.670;23.218;2022-11-15T04:22:58;93005.75;;;4.21;100.00
67499;BME280;54345;42.670;23.218;2022-11-15T04:25:44;93013.47;;;4.13;100.00
67499;BME280;54345;42.670;23.218;2022-11-15T04:28:10;93010.25;;;3.95;100.00
67499;BME280;54345;42.670;23.218;2022-11-15T04:30:37;92998.34;;;3.87;100.00
67499;BME280;54345;42.670;23.218;2022-11-15T04:33:03;93005.59;;;3.81;100.00
67499;BME280;54345;42.670;23.218;2022-11-15T04:35:28;93013.22;;;3.82;100.00
67499;BME280;54345;42.670;23.218;2022-11-15T04:37:55;93008.94;;;3.90;100.00
67499;BME280;54345;42.670;23.218;2022-11-15T04:40:21;93011.00;;;3.81;100.00
67499;BME280;54345;42.670;23.218;2022-11-15T04:42:46;93004.59;;;3.78;100.00
67499;BME280;54345;42.670;23.218;2022-11-15T04:45:12;92999.19;;;3.64;100.00
67499;BME280;54345;42.670;23.218;2022-11-15T04:47:38;93005.00;;;3.48;100.00
67499;BME280;54345;42.670;23.218;2022-11-15T04:50:04;93003.69;;;3.43;100.00
67499;BME280;54345;42.670;23.218;2022-11-15T04:52:29;93000.69;;;3.27;100.00
67499;BME280;54345;42.670;23.218;2022-11-15T04:54:55;93007.66;;;3.19;100.00
67499;BME280;54345;42.670;23.218;2022-11-15T04:57:20;92994.66;;;3.17;100.00
67499;BME280;54345;42.670;23.218;2022-11-15T04:59:46;93003.59;;;3.23;100.00
67499;BME280;54345;42.670;23.218;2022-11-15T05:02:12;93008.91;;;3.47;100.00
67499;BME280;54345;42.670;23.218;2022-11-15T05:04:38;93016.50;;;3.34;100.00
67499;BME280;54345;42.670;23.218;2022-11-15T05:07:04;93013.53;;;3.32;100.00
67499;BME280;54345;42.670;23.218;2022-11-15T05:09:30;93016.94;;;3.32;100.00
67499;BME280;54345;42.670;23.218;2022-11-15T05:11:55;93020.31;;;3.42;100.00
67499;BME280;54345;42.670;23.218;2022-11-15T05:14:21;93014.56;;;3.49;100.00
67499;BME280;54345;42.670;23.218;2022-11-15T05:16:47;93012.53;;;3.44;100.00
67499;BME280;54345;42.670;23.218;2022-11-15T05:19:12;93001.09;;;3.49;100.00
67499;BME280;54345;42.670;23.218;2022-11-15T05:21:38;93007.25;;;3.49;100.00
67499;BME280;54345;42.670;23.218;2022-11-15T05:24:04;92998.72;;;3.51;100.00
67499;BME280;54345;42.670;23.218;2022-11-15T05:26:30;93005.06;;;3.39;100.00
67499;BME280;54345;42.670;23.218;2022-11-15T05:28:57;93000.78;;;3.32;100.00
67499;BME280;54345;42.670;23.218;2022-11-15T05:31:24;93003.59;;;3.38;100.00
67499;BME280;54345;42.670;23.218;2022-11-15T05:33:51;92999.50;;;3.42;100.00
67499;BME280;54345;42.670;23.218;2022-11-15T05:36:31;92998.13;;;3.47;100.00
67499;BME280;54345;42.670;23.218;2022-11-15T05:38:58;92996.22;;;3.24;100.00
67499;BME280;54345;42.670;23.218;2022-11-15T05:41:32;92988.91;;;3.39;100.00
67499;BME280;54345;42.670;23.218;2022-11-15T05:44:01;92999.78;;;3.30;100.00
67499;BME280;54345;42.670;23.218;2022-11-15T05:46:28;92999.69;;;3.39;100.00
67499;BME280;54345;42.670;23.218;2022-11-15T05:48:55;92997.09;;;3.30;100.00
67499;BME280;54345;42.670;23.218;2022-11-15T05:51:21;93010.72;;;3.26;100.00
67499;BME280;54345;42.670;23.218;2022-11-15T05:53:48;93010.44;;;3.24;100.00
67499;BME280;54345;42.670;23.218;2022-11-15T05:56:14;93016.78;;;3.36;100.00
67499;BME280;54345;42.670;23.218;2022-11-15T05:58:40;93012.38;;;3.24;100.00
67499;BME280;54345;42.670;23.218;2022-11-15T06:01:07;93024.63;;;3.25;100.00
67499;BME280;54345;42.670;23.218;2022-11-15T06:03:32;93003.81;;;3.11;100.00
67499;BME280;54345;42.670;23.218;2022-11-15T06:05:58;93002.50;;;3.06;100.00
67499;BME280;54345;42.670;23.218;2022-11-15T06:08:23;92996.69;;;3.08;100.00
67499;BME280;54345;42.670;23.218;2022-11-15T06:10:49;93007.22;;;3.11;100.00
67499;BME280;54345;42.670;23.218;2022-11-15T06:13:14;93008.81;;;3.18;100.00
67499;BME280;54345;42.670;23.218;2022-11-15T06:15:40;93006.22;;;3.09;100.00
67499;BME280;54345;42.670;23.218;2022-11-15T06:18:05;93000.97;;;3.14;100.00
67499;BME280;54345;42.670;23.218;2022-11-15T06:20:34;93000.31;;;3.19;100.00
67499;BME280;54345;42.670;23.218;2022-11-15T06:23:01;93003.22;;;3.30;100.00
67499;BME280;54345;42.670;23.218;2022-11-15T06:25:28;93008.41;;;3.34;100.00
67499;BME280;54345;42.670;23.218;2022-11-15T06:27:55;93015.34;;;3.26;100.00
67499;BME280;54345;42.670;23.218;2022-11-15T06:30:22;93002.13;;;3.51;100.00
67499;BME280;54345;42.670;23.218;2022-11-15T06:32:48;93000.00;;;3.41;100.00
67499;BME280;54345;42.670;23.218;2022-11-15T06:35:14;93001.94;;;3.55;100.00
67499;BME280;54345;42.670;23.218;2022-11-15T06:37:40;93006.97;;;3.62;100.00
67499;BME280;54345;42.670;23.218;2022-11-15T06:40:07;93009.78;;;3.67;100.00
67499;BME280;54345;42.670;23.218;2022-11-15T06:42:33;92995.38;;;3.70;100.00
67499;BME280;54345;42.670;23.218;2022-11-15T06:44:59;92994.22;;;3.48;100.00
67499;BME280;54345;42.670;23.218;2022-11-15T06:47:24;92992.44;;;3.30;100.00
67499;BME280;54345;42.670;23.218;2022-11-15T06:49:50;92997.63;;;3.19;100.00
67499;BME280;54345;42.670;23.218;2022-11-15T06:52:16;92997.69;;;3.48;100.00
67499;BME280;54345;42.670;23.218;2022-11-15T06:54:44;93003.81;;;3.78;100.00
67499;BME280;54345;42.670;23.218;2022-11-15T06:57:09;93008.41;;;3.86;100.00
67499;BME280;54345;42.670;23.218;2022-11-15T06:59:36;93006.25;;;3.76;100.00
67499;BME280;54345;42.670;23.218;2022-11-15T07:02:02;92982.88;;;3.29;100.00
67499;BME280;54345;42.670;23.218;2022-11-15T07:04:27;92988.66;;;3.37;100.00
67499;BME280;54345;42.670;23.218;2022-11-15T07:06:53;92984.66;;;3.32;100.00
67499;BME280;54345;42.670;23.218;2022-11-15T07:09:18;92976.47;;;2.89;100.00
67499;BME280;54345;42.670;23.218;2022-11-15T07:11:44;92985.50;;;3.38;100.00
67499;BME280;54345;42.670;23.218;2022-11-15T07:14:09;92986.22;;;3.39;100.00
67499;BME280;54345;42.670;23.218;2022-11-15T07:16:36;92996.38;;;3.44;100.00
67499;BME280;54345;42.670;23.218;2022-11-15T07:19:02;92986.72;;;3.37;100.00
67499;BME280;54345;42.670;23.218;2022-11-15T07:21:27;92995.34;;;3.56;100.00
67499;BME280;54345;42.670;23.218;2022-11-15T07:23:53;92999.28;;;3.84;100.00
67499;BME280;54345;42.670;23.218;2022-11-15T07:26:19;93011.16;;;4.06;100.00
67499;BME280;54345;42.670;23.218;2022-11-15T07:28:44;92997.41;;;4.04;100.00
67499;BME280;54345;42.670;23.218;2022-11-15T07:31:10;92988.41;;;3.93;100.00
67499;BME280;54345;42.670;23.218;2022-11-15T07:33:36;93003.53;;;4.19;100.00
67499;BME280;54345;42.670;23.218;2022-11-15T07:36:04;93018.94;;;4.48;100.00
67499;BME280;54345;42.670;23.218;2022-11-15T07:38:30;92993.41;;;4.29;100.00
67499;BME280;54345;42.670;23.218;2022-11-15T07:40:58;93005.00;;;4.49;100.00
67499;BME280;54345;42.670;23.218;2022-11-15T07:43:24;92999.75;;;4.60;100.00
67499;BME280;54345;42.670;23.218;2022-11-15T07:45:49;93007.97;;;4.37;100.00
67499;BME280;54345;42.670;23.218;2022-11-15T07:48:15;92993.66;;;4.31;100.00
67499;BME280;54345;42.670;23.218;2022-11-15T07:50:42;93001.38;;;4.38;100.00
67499;BME280;54345;42.670;23.218;2022-11-15T07:53:08;93000.25;;;4.44;100.00
67499;BME280;54345;42.670;23.218;2022-11-15T07:55:34;92993.53;;;4.54;100.00
67499;BME280;54345;42.670;23.218;2022-11-15T07:58:04;92999.94;;;5.11;100.00
67499;BME280;54345;42.670;23.218;2022-11-15T08:00:30;92991.97;;;4.82;100.00
67499;BME280;54345;42.670;23.218;2022-11-15T08:03:10;92979.53;;;4.70;100.00
67499;BME280;54345;42.670;23.218;2022-11-15T08:05:37;92997.91;;;5.06;100.00
67499;BME280;54345;42.670;23.218;2022-11-15T08:08:04;92992.09;;;5.13;100.00
67499;BME280;54345;42.670;23.218;2022-11-15T08:10:30;92981.75;;;4.72;100.00
67499;BME280;54345;42.670;23.218;2022-11-15T08:13:10;92993.66;;;4.99;100.00
67499;BME280;54345;42.670;23.218;2022-11-15T08:15:37;92986.06;;;4.83;100.00
67499;BME280;54345;42.670;23.218;2022-11-15T08:18:06;92993.59;;;5.14;100.00
67499;BME280;54345;42.670;23.218;2022-11-15T08:20:34;92987.50;;;4.99;100.00
67499;BME280;54345;42.670;23.218;2022-11-15T08:23:01;92981.31;;;5.13;100.00
67499;BME280;54345;42.670;23.218;2022-11-15T08:25:28;92973.28;;;5.18;100.00
67499;BME280;54345;42.670;23.218;2022-11-15T08:28:01;92982.72;;;5.28;100.00
67499;BME280;54345;42.670;23.218;2022-11-15T08:30:27;92979.28;;;4.88;100.00
67499;BME280;54345;42.670;23.218;2022-11-15T08:32:53;92977.84;;;4.92;100.00
67499;BME280;54345;42.670;23.218;2022-11-15T08:35:21;92962.47;;;4.79;100.00
67499;BME280;54345;42.670;23.218;2022-11-15T08:37:47;92977.69;;;4.62;100.00
67499;BME280;54345;42.670;23.218;2022-11-15T08:40:13;92971.91;;;4.69;100.00
67499;BME280;54345;42.670;23.218;2022-11-15T08:42:39;92977.16;;;4.58;100.00
67499;BME280;54345;42.670;23.218;2022-11-15T08:45:06;92968.81;;;4.76;100.00
67499;BME280;54345;42.670;23.218;2022-11-15T08:47:32;92975.72;;;4.96;100.00
67499;BME280;54345;42.670;23.218;2022-11-15T08:49:58;92965.50;;;4.86;100.00
67499;BME280;54345;42.670;23.218;2022-11-15T08:52:23;92982.53;;;4.58;100.00
67499;BME280;54345;42.670;23.218;2022-11-15T08:54:49;92969.19;;;4.49;100.00
67499;BME280;54345;42.670;23.218;2022-11-15T08:57:15;92951.22;;;4.60;100.00
67499;BME280;54345;42.670;23.218;2022-11-15T08:59:40;92961.94;;;4.75;100.00
67499;BME280;54345;42.670;23.218;2022-11-15T09:02:06;92958.19;;;4.18;100.00
67499;BME280;54345;42.670;23.218;2022-11-15T09:04:32;92963.84;;;4.20;100.00
67499;BME280;54345;42.670;23.218;2022-11-15T09:06:58;92960.50;;;4.25;100.00
67499;BME280;54345;42.670;23.218;2022-11-15T09:09:23;92941.94;;;4.12;100.00
67499;BME280;54345;42.670;23.218;2022-11-15T09:11:49;92941.00;;;4.01;100.00
67499;BME280;54345;42.670;23.218;2022-11-15T09:14:16;92949.53;;;4.48;100.00
67499;BME280;54345;42.670;23.218;2022-11-15T09:16:41;92942.13;;;4.78;100.00
67499;BME280;54345;42.670;23.218;2022-11-15T09:19:07;92940.81;;;4.53;100.00
67499;BME280;54345;42.670;23.218;2022-11-15T09:21:32;92941.56;;;4.93;100.00
67499;BME280;54345;42.670;23.218;2022-11-15T09:23:58;92940.75;;;5.07;100.00
67499;BME280;54345;42.670;23.218;2022-11-15T09:26:24;92936.78;;;4.83;100.00
67499;BME280;54345;42.670;23.218;2022-11-15T09:28:50;92934.78;;;5.23;100.00
67499;BME280;54345;42.670;23.218;2022-11-15T09:31:16;92929.09;;;5.41;100.00
67499;BME280;54345;42.670;23.218;2022-11-15T09:33:45;92934.22;;;5.14;100.00
67499;BME280;54345;42.670;23.218;2022-11-15T09:36:11;92927.81;;;4.91;100.00
67499;BME280;54345;42.670;23.218;2022-11-15T09:38:37;92919.56;;;5.00;100.00
67499;BME280;54345;42.670;23.218;2022-11-15T09:47:00;92924.13;;;5.14;100.00
67499;BME280;54345;42.670;23.218;2022-11-15T09:49:30;92923.56;;;4.85;100.00
67499;BME280;54345;42.670;23.218;2022-11-15T09:51:57;92922.41;;;4.91;100.00
67499;BME280;54345;42.670;23.218;2022-11-15T09:54:37;92913.16;;;5.69;100.00
67499;BME280;54345;42.670;23.218;2022-11-15T09:57:14;92890.78;;;4.92;100.00
67499;BME280;54345;42.670;23.218;2022-11-15T10:02:14;92890.25;;;5.13;100.00
67499;BME280;54345;42.670;23.218;2022-11-15T10:04:45;92892.66;;;4.86;100.00
67499;BME280;54345;42.670;23.218;2022-11-15T10:07:19;92887.06;;;4.89;100.00
67499;BME280;54345;42.670;23.218;2022-11-15T10:09:57;92894.47;;;5.40;100.00
67499;BME280;54345;42.670;23.218;2022-11-15T10:12:27;92883.34;;;5.58;100.00
67499;BME280;54345;42.670;23.218;2022-11-15T10:15:13;92879.47;;;5.64;100.00
67499;BME280;54345;42.670;23.218;2022-11-15T10:18:14;92886.44;;;5.76;100.00
67499;BME280;54345;42.670;23.218;2022-11-15T10:20:50;92883.19;;;5.98;100.00
67499;BME280;54345;42.670;23.218;2022-11-15T10:23:20;92883.28;;;6.51;100.00
67499;BME280;54345;42.670;23.218;2022-11-15T10:25:47;92873.66;;;6.44;100.00
67499;BME280;54345;42.670;23.218;2022-11-15T10:28:29;92864.47;;;6.78;100.00
67499;BME280;54345;42.670;23.218;2022-11-15T10:30:57;92854.47;;;6.95;100.00
67499;BME280;54345;42.670;23.218;2022-11-15T10:33:37;92850.44;;;6.69;100.00
67499;BME280;54345;42.670;23.218;2022-11-15T10:43:46;92816.78;;;6.86;100.00
67499;BME280;54345;42.670;23.218;2022-11-15T10:46:26;92812.69;;;6.43;100.00
67499;BME280;54345;42.670;23.218;2022-11-15T10:48:52;92802.84;;;6.46;100.00
67499;BME280;54345;42.670;23.218;2022-11-15T10:51:27;92821.22;;;6.89;100.00
67499;BME280;54345;42.670;23.218;2022-11-15T10:53:56;92799.41;;;6.45;100.00
67499;BME280;54345;42.670;23.218;2022-11-15T10:56:24;92797.09;;;6.91;100.00
67499;BME280;54345;42.670;23.218;2022-11-15T10:58:54;92793.66;;;6.91;100.00
67499;BME280;54345;42.670;23.218;2022-11-15T11:01:25;92795.44;;;7.21;100.00
67499;BME280;54345;42.670;23.218;2022-11-15T11:04:04;92785.28;;;6.89;100.00
67499;BME280;54345;42.670;23.218;2022-11-15T11:06:54;92781.09;;;6.99;100.00
67499;BME280;54345;42.670;23.218;2022-11-15T11:09:34;92776.44;;;7.05;100.00
67499;BME280;54345;42.670;23.218;2022-11-15T11:12:02;92778.44;;;7.04;100.00
67499;BME280;54345;42.670;23.218;2022-11-15T11:14:29;92778.19;;;7.30;100.00
67499;BME280;54345;42.670;23.218;2022-11-15T11:17:27;92752.84;;;7.43;100.00
67499;BME280;54345;42.670;23.218;2022-11-15T11:28:14;92726.75;;;7.41;100.00
67499;BME280;54345;42.670;23.218;2022-11-15T11:33:44;92737.28;;;7.82;100.00
67499;BME280;54345;42.670;23.218;2022-11-15T11:44:06;92708.94;;;7.89;100.00
67499;BME280;54345;42.670;23.218;2022-11-15T11:52:08;92680.63;;;7.79;100.00
67499;BME280;54345;42.670;23.218;2022-11-15T12:00:40;92674.84;;;8.10;100.00
67499;BME280;54345;42.670;23.218;2022-11-15T12:03:27;92672.31;;;8.34;100.00
67499;BME280;54345;42.670;23.218;2022-11-15T12:06:04;92671.28;;;7.74;100.00
67499;BME280;54345;42.670;23.218;2022-11-15T12:08:40;92659.38;;;7.94;100.00
67499;BME280;54345;42.670;23.218;2022-11-15T12:11:21;92653.81;;;8.32;100.00
67499;BME280;54345;42.670;23.218;2022-11-15T12:13:53;92664.38;;;8.41;100.00
67499;BME280;54345;42.670;23.218;2022-11-15T12:16:29;92653.59;;;8.25;100.00
67499;BME280;54345;42.670;23.218;2022-11-15T12:18:59;92649.31;;;8.40;100.00
67499;BME280;54345;42.670;23.218;2022-11-15T12:24:25;92635.84;;;8.24;100.00
67499;BME280;54345;42.670;23.218;2022-11-15T12:26:57;92636.97;;;8.45;100.00
67499;BME280;54345;42.670;23.218;2022-11-15T12:29:45;92642.34;;;8.56;100.00
67499;BME280;54345;42.670;23.218;2022-11-15T12:32:32;92641.88;;;8.52;100.00
67499;BME280;54345;42.670;23.218;2022-11-15T12:35:00;92622.97;;;8.35;100.00
67499;BME280;54345;42.670;23.218;2022-11-15T12:37:46;92628.41;;;8.35;100.00
67499;BME280;54345;42.670;23.218;2022-11-15T12:45:38;92628.66;;;8.72;100.00
67499;BME280;54345;42.670;23.218;2022-11-15T12:48:44;92626.28;;;8.58;100.00
67499;BME280;54345;42.670;23.218;2022-11-15T12:51:09;92612.34;;;8.37;100.00
67499;BME280;54345;42.670;23.218;2022-11-15T12:53:35;92602.44;;;8.45;100.00
67499;BME280;54345;42.670;23.218;2022-11-15T12:58:46;92608.38;;;8.44;100.00
67499;BME280;54345;42.670;23.218;2022-11-15T13:11:55;92595.13;;;8.29;100.00
67499;BME280;54345;42.670;23.218;2022-11-15T13:17:10;92599.59;;;8.16;100.00
67499;BME280;54345;42.670;23.218;2022-11-15T13:19:38;92598.88;;;8.15;100.00
67499;BME280;54345;42.670;23.218;2022-11-15T13:22:09;92595.44;;;8.20;100.00
67499;BME280;54345;42.670;23.218;2022-11-15T13:24:54;92584.81;;;8.22;100.00
67499;BME280;54345;42.670;23.218;2022-11-15T13:27:20;92581.63;;;8.13;100.00
67499;BME280;54345;42.670;23.218;2022-11-15T13:29:46;92579.38;;;8.17;100.00
67499;BME280;54345;42.670;23.218;2022-11-15T13:32:15;92591.88;;;8.36;100.00
67499;BME280;54345;42.670;23.218;2022-11-15T13:34:49;92582.28;;;8.35;100.00
67499;BME280;54345;42.670;23.218;2022-11-15T13:39:47;92571.53;;;8.19;100.00
67499;BME280;54345;42.670;23.218;2022-11-15T13:42:18;92580.63;;;8.16;100.00
67499;BME280;54345;42.670;23.218;2022-11-15T13:44:59;92572.22;;;8.25;100.00
67499;BME280;54345;42.670;23.218;2022-11-15T13:47:27;92581.38;;;8.22;100.00
67499;BME280;54345;42.670;23.218;2022-11-15T13:49:53;92583.56;;;8.23;100.00
67499;BME280;54345;42.670;23.218;2022-11-15T13:52:19;92578.94;;;8.07;100.00
67499;BME280;54345;42.670;23.218;2022-11-15T13:55:01;92558.28;;;8.04;100.00
67499;BME280;54345;42.670;23.218;2022-11-15T13:57:42;92578.66;;;8.22;100.00
67499;BME280;54345;42.670;23.218;2022-11-15T14:00:37;92586.56;;;8.14;100.00
67499;BME280;54345;42.670;23.218;2022-11-15T14:03:21;92579.88;;;8.26;100.00
67499;BME280;54345;42.670;23.218;2022-11-15T14:06:08;92580.88;;;8.12;100.00
67499;BME280;54345;42.670;23.218;2022-11-15T14:09:02;92584.50;;;7.80;100.00
67499;BME280;54345;42.670;23.218;2022-11-15T14:11:28;92585.78;;;7.68;100.00
67499;BME280;54345;42.670;23.218;2022-11-15T14:14:14;92590.88;;;7.93;100.00
67499;BME280;54345;42.670;23.218;2022-11-15T14:16:46;92582.31;;;7.73;100.00
67499;BME280;54345;42.670;23.218;2022-11-15T14:19:33;92575.63;;;7.79;100.00
67499;BME280;54345;42.670;23.218;2022-11-15T14:25:32;92564.78;;;8.31;100.00
67499;BME280;54345;42.670;23.218;2022-11-15T14:27:33;92558.53;;;8.01;100.00
67499;BME280;54345;42.670;23.218;2022-11-15T14:29:59;92563.94;;;8.06;100.00
67499;BME280;54345;42.670;23.218;2022-11-15T14:32:29;92579.44;;;8.06;100.00
67499;BME280;54345;42.670;23.218;2022-11-15T14:35:00;92577.09;;;7.80;100.00
67499;BME280;54345;42.670;23.218;2022-11-15T14:37:28;92581.81;;;7.80;100.00
67499;BME280;54345;42.670;23.218;2022-11-15T14:39:56;92580.09;;;7.71;100.00
67499;BME280;54345;42.670;23.218;2022-11-15T14:42:23;92575.50;;;7.50;100.00
67499;BME280;54345;42.670;23.218;2022-11-15T14:44:49;92585.56;;;7.55;100.00
67499;BME280;54345;42.670;23.218;2022-11-15T14:47:15;92572.59;;;7.43;100.00
67499;BME280;54345;42.670;23.218;2022-11-15T14:49:40;92566.19;;;7.35;100.00
67499;BME280;54345;42.670;23.218;2022-11-15T14:52:27;92576.72;;;7.54;100.00